Time;durP1;ratioP1;P1;durP2;ratioP2;P2;SDS_P1;SDS_P2;PMS_P1;PMS_P2;Temp;Humidity;BMP_temperature;BMP_pressure;BME280_temperature;BME280_humidity;BME280_pressure;Samples;Min_cycle;Max_cycle;Signal;HPM_P1;HPM_P2
2022/12/17 13:06:04;;;;;;;63.95;32.15;;;;;;;0.95;68.56;93136.00;2057282;69;20160;-74
2022/12/17 13:08:30;;;;;;;66.55;33.38;;;;;;;0.92;67.14;93139.88;2057268;69;20554;-76
2022/12/17 13:10:55;;;;;;;55.85;29.17;;;;;;;0.77;67.33;93134.16;2057178;69;20622;-74
2022/12/17 13:13:34;;;;;;;48.22;26.00;;;;;;;0.82;67.61;93132.53;2057288;69;20156;-77
2022/12/17 13:16:35;;;;;;;50.85;26.17;;;;;;;0.67;67.12;93122.75;2057177;69;20192;-78
2022/12/17 13:19:16;;;;;;;49.45;26.50;;;;;;;0.63;66.20;93138.97;2057084;69;20225;-75
2022/12/17 13:21:41;;;;;;;60.17;30.10;;;;;;;0.33;67.31;93139.34;2057370;69;20255;-76
2022/12/17 13:24:12;;;;;;;64.57;31.95;;;;;;;0.18;67.75;93144.66;2057070;69;20225;-74
2022/12/17 13:26:40;;;;;;;63.38;30.58;;;;;;;0.06;67.65;93137.88;2057269;69;20146;-74
2022/12/17 13:29:31;;;;;;;65.70;31.63;;;;;;;0.18;67.86;93144.66;2057135;69;20673;-75
2022/12/17 13:32:11;;;;;;;63.75;31.92;;;;;;;0.20;67.21;93144.88;2067460;69;20176;-74
2022/12/17 13:35:01;;;;;;;61.70;31.17;;;;;;;0.06;67.33;93148.94;2071659;69;20152;-75
2022/12/17 13:37:33;;;;;;;69.00;34.05;;;;;;;-0.07;67.78;93144.88;2071699;69;20132;-75
2022/12/17 13:40:40;;;;;;;79.70;38.10;;;;;;;0.05;67.85;93148.19;2071302;69;20205;-77
2022/12/17 13:43:16;;;;;;;69.20;36.30;;;;;;;-0.07;68.04;93155.94;2069457;69;20149;-74
2022/12/17 13:45:44;;;;;;;78.43;38.78;;;;;;;-0.07;67.91;93171.81;2071567;69;20225;-75
2022/12/17 13:48:23;;;;;;;85.78;42.38;;;;;;;-0.09;68.47;93169.59;2071691;69;20266;-75
2022/12/17 13:51:04;;;;;;;80.22;42.20;;;;;;;-0.27;68.12;93173.16;2071499;69;20156;-75
2022/12/17 13:53:34;;;;;;;98.13;50.22;;;;;;;-0.31;68.93;93175.50;2071609;69;20229;-76
2022/12/17 13:56:00;;;;;;;77.70;37.85;;;;;;;-0.31;68.42;93183.81;2071319;69;20152;-74
2022/12/17 13:58:31;;;;;;;45.58;24.85;;;;;;;-0.27;68.31;93176.69;2071423;69;20241;-75
2022/12/17 14:01:13;;;;;;;52.33;26.38;;;;;;;-0.37;67.95;93185.91;2071468;69;20132;-74
2022/12/17 14:03:47;;;;;;;66.22;32.22;;;;;;;-0.31;67.73;93187.31;2071618;69;20156;-75
2022/12/17 14:06:16;;;;;;;51.40;26.80;;;;;;;-0.49;67.21;93187.38;2071469;69;20164;-75
2022/12/17 14:08:43;;;;;;;53.08;26.13;;;;;;;-0.79;67.82;93194.59;2071691;69;20156;-75
2022/12/17 14:13:55;;;;;;;59.92;27.98;;;;;;;-0.91;68.77;93203.59;2071319;69;20152;-75
2022/12/17 14:16:21;;;;;;;56.45;28.42;;;;;;;-0.87;68.28;93204.78;2071355;69;20218;-76
2022/12/17 14:18:52;;;;;;;60.28;29.30;;;;;;;-0.75;68.70;93199.06;2071447;69;20136;-77
2022/12/17 14:21:19;;;;;;;86.15;39.97;;;;;;;-1.02;69.24;93196.91;2071301;69;20145;-75
2022/12/17 14:23:51;;;;;;;138.70;62.47;;;;;;;-0.81;68.69;93210.97;2071377;69;20599;-78
2022/12/17 14:26:17;;;;;;;171.88;75.18;;;;;;;-0.91;70.38;93207.09;2071560;69;20220;-79
2022/12/17 14:28:52;;;;;;;136.57;63.78;;;;;;;-0.89;70.46;93210.06;2071133;69;20175;-79
2022/12/17 14:31:23;;;;;;;126.15;58.67;;;;;;;-0.85;69.98;93220.81;2071245;69;20236;-76
2022/12/17 14:34:12;;;;;;;98.30;47.22;;;;;;;-0.93;70.82;93219.94;2071273;69;20144;-76
2022/12/17 14:36:41;;;;;;;67.78;31.95;;;;;;;-1.00;70.20;93218.53;2071485;69;20160;-77
2022/12/17 14:39:23;;;;;;;63.30;32.00;;;;;;;-0.96;70.06;93218.97;2071217;69;20144;-79
2022/12/17 14:44:40;;;;;;;55.92;27.30;;;;;;;-1.05;70.05;93238.69;2071442;69;20555;-78
2022/12/17 14:47:07;;;;;;;71.57;35.13;;;;;;;-1.27;69.39;93241.75;2071420;69;20129;-78
2022/12/17 14:49:33;;;;;;;62.17;31.42;;;;;;;-1.44;69.15;93241.94;2071459;69;20175;-77
2022/12/17 14:52:00;;;;;;;64.30;30.35;;;;;;;-1.43;68.92;93243.41;2068291;69;20155;-75
2022/12/17 14:54:29;;;;;;;60.13;30.17;;;;;;;-1.60;69.04;93249.16;2071351;69;20120;-75
2022/12/17 14:56:57;;;;;;;63.00;31.17;;;;;;;-1.60;69.11;93254.66;2071559;69;20143;-77
2022/12/17 14:59:38;;;;;;;63.75;31.92;;;;;;;-1.64;69.08;93257.72;2071382;69;20168;-76
2022/12/17 15:02:18;;;;;;;60.17;29.70;;;;;;;-1.83;68.54;93263.19;2071445;69;20175;-75
2022/12/17 15:04:45;;;;;;;67.22;31.45;;;;;;;-1.88;69.04;93269.50;2071388;69;20148;-74
2022/12/17 15:07:13;;;;;;;69.13;33.20;;;;;;;-1.70;68.38;93278.34;2071067;69;20504;-76
2022/12/17 15:09:40;;;;;;;70.60;33.53;;;;;;;-1.71;69.06;93277.59;2071233;69;20180;-74
2022/12/17 15:12:07;;;;;;;69.65;34.88;;;;;;;-1.62;69.14;93276.50;2071201;69;20565;-75
2022/12/17 15:14:32;;;;;;;85.20;40.92;;;;;;;-1.84;69.89;93275.47;2071508;69;20719;-75
2022/12/17 15:17:00;;;;;;;105.07;52.05;;;;;;;-1.79;70.96;93262.88;2067997;69;20136;-74
2022/12/17 15:19:25;;;;;;;127.15;58.03;;;;;;;-1.88;70.84;93286.06;2071344;69;20152;-74
2022/12/17 15:21:51;;;;;;;131.95;59.55;;;;;;;-1.87;71.64;93281.28;2071406;69;20151;-80
2022/12/17 15:24:20;;;;;;;73.68;35.40;;;;;;;-1.85;72.06;93289.78;2067812;69;20516;-73
2022/12/17 15:26:46;;;;;;;68.93;32.45;;;;;;;-1.90;70.55;93299.63;2071351;69;20235;-77
2022/12/17 15:29:13;;;;;;;63.85;29.75;;;;;;;-2.20;70.93;93296.09;2071338;69;20156;-73
2022/12/17 15:31:38;;;;;;;79.78;36.35;;;;;;;-2.36;70.31;93300.50;2071321;69;20152;-72
2022/12/17 15:34:04;;;;;;;99.30;47.38;;;;;;;-2.28;69.95;93301.44;2071277;69;20234;-75
2022/12/17 15:36:30;;;;;;;118.60;52.33;;;;;;;-2.22;70.66;93293.13;2071523;69;20627;-74
2022/12/17 15:38:57;;;;;;;125.10;53.08;;;;;;;-2.33;70.73;93285.69;2071107;69;20148;-78
2022/12/17 15:44:06;;;;;;;111.18;50.95;;;;;;;-2.39;69.80;93293.97;2071205;69;20172;-74
2022/12/17 15:46:32;;;;;;;83.10;40.25;;;;;;;-2.48;69.78;93288.78;2071203;69;20291;-76
2022/12/17 15:48:57;;;;;;;74.30;35.40;;;;;;;-2.44;69.02;93283.75;2071349;69;20235;-76
2022/12/17 15:51:23;;;;;;;80.53;38.28;;;;;;;-2.53;70.06;93286.81;2071243;69;20172;-75
2022/12/17 15:53:50;;;;;;;87.45;39.97;;;;;;;-2.33;69.53;93293.97;2071091;69;20236;-74
2022/12/17 15:56:27;;;;;;;86.28;40.08;;;;;;;-2.38;70.61;93295.50;2071106;69;20174;-75
2022/12/17 15:58:55;;;;;;;88.28;46.10;;;;;;;-2.09;70.22;93312.59;2067956;69;20149;-74
2022/12/17 16:01:21;;;;;;;92.18;46.03;;;;;;;-2.00;70.82;93315.00;2071320;69;20265;-74
2022/12/17 16:03:47;;;;;;;75.53;38.33;;;;;;;-2.17;70.24;93322.66;2071353;69;20168;-80
2022/12/17 16:06:12;;;;;;;75.13;38.40;;;;;;;-2.27;70.50;93325.00;2071182;69;20576;-77
2022/12/17 16:08:38;;;;;;;81.68;41.35;;;;;;;-2.31;70.47;93322.50;2071360;69;20268;-76
2022/12/17 16:11:08;;;;;;;68.45;34.25;;;;;;;-2.36;69.75;93317.78;2071135;69;20255;-73
2022/12/17 16:13:37;;;;;;;68.40;34.63;;;;;;;-2.46;70.12;93330.41;2071186;69;20197;-77
2022/12/17 16:16:04;;;;;;;70.22;34.65;;;;;;;-2.36;70.26;93331.59;2071283;69;20156;-76
2022/12/17 16:18:31;;;;;;;72.75;36.40;;;;;;;-2.40;71.41;93344.16;2068142;69;20149;-75
2022/12/17 16:21:03;;;;;;;75.20;37.22;;;;;;;-2.26;71.33;93334.78;2071716;69;20136;-77
2022/12/17 16:23:29;;;;;;;72.97;38.83;;;;;;;-2.31;70.37;93332.81;2071605;69;20561;-77
2022/12/17 16:25:56;;;;;;;89.95;42.97;;;;;;;-2.23;71.63;93328.25;2071627;69;20140;-78
2022/12/17 16:28:22;;;;;;;96.45;46.95;;;;;;;-2.14;71.42;93336.19;2071548;69;20553;-77
2022/12/17 16:31:05;;;;;;;112.35;55.60;;;;;;;-2.13;71.46;93340.44;2071826;69;20638;-74
2022/12/17 16:33:36;;;;;;;123.55;62.28;;;;;;;-2.18;72.05;93334.97;2073938;69;20207;-76
2022/12/17 16:36:03;;;;;;;153.38;76.35;;;;;;;-2.15;72.26;93342.97;2071764;69;20198;-76
2022/12/17 16:38:29;;;;;;;149.55;74.13;;;;;;;-1.98;71.71;93344.84;2075154;69;20124;-76
2022/12/17 16:40:56;;;;;;;147.88;75.90;;;;;;;-2.02;71.88;93342.34;2075041;69;20166;-75
2022/12/17 16:43:23;;;;;;;156.85;80.13;;;;;;;-2.01;72.45;93343.88;2074959;69;20217;-78
2022/12/17 16:45:51;;;;;;;146.82;73.63;;;;;;;-2.08;71.88;93356.22;2073604;69;20176;-76
2022/12/17 16:48:18;;;;;;;133.57;64.55;;;;;;;-1.97;72.62;93357.38;2071632;69;20151;-76
2022/12/17 16:50:44;;;;;;;111.35;54.08;;;;;;;-1.97;72.02;93354.63;2071745;69;20179;-75
2022/12/17 16:53:11;;;;;;;96.20;48.95;;;;;;;-2.14;72.17;93365.78;2071734;69;20323;-75
2022/12/17 16:55:41;;;;;;;99.53;49.08;;;;;;;-2.05;72.12;93368.25;2071551;69;20144;-76
2022/12/17 16:58:08;;;;;;;111.28;54.33;;;;;;;-1.99;71.79;93379.97;2071686;69;20228;-75
2022/12/17 17:00:34;;;;;;;104.22;51.30;;;;;;;-1.98;72.66;93372.44;2071782;69;20148;-80
2022/12/17 17:03:00;;;;;;;97.78;49.20;;;;;;;-2.20;72.58;93376.09;2069220;69;20148;-76
2022/12/17 17:05:26;;;;;;;81.63;43.65;;;;;;;-2.18;72.23;93379.13;2075174;69;20144;-76
2022/12/17 17:07:51;;;;;;;88.75;44.47;;;;;;;-2.01;72.03;93385.28;2075169;69;20311;-80
2022/12/17 17:10:17;;;;;;;120.55;56.97;;;;;;;-2.05;73.00;93393.06;2075001;69;20134;-80
2022/12/17 17:12:42;;;;;;;142.02;71.68;;;;;;;-2.01;73.62;93387.28;2074923;69;20291;-76
2022/12/17 17:15:09;;;;;;;146.88;66.95;;;;;;;-1.95;73.49;93393.50;2074021;69;20593;-77
2022/12/17 17:17:35;;;;;;;116.13;55.63;;;;;;;-1.74;73.36;93394.59;2073505;69;20179;-75
2022/12/17 17:20:00;;;;;;;120.72;54.63;;;;;;;-1.79;72.97;93392.59;2073479;69;20285;-76
2022/12/17 17:22:26;;;;;;;125.18;60.25;;;;;;;-1.77;73.07;93400.41;2075270;69;20220;-76
2022/12/17 17:24:52;;;;;;;126.45;59.72;;;;;;;-1.68;73.95;93398.06;2074965;69;20508;-74
2022/12/17 17:27:17;;;;;;;114.32;54.17;;;;;;;-1.66;73.19;93389.25;2068941;69;20144;-75
2022/12/17 17:29:43;;;;;;;111.05;53.83;;;;;;;-1.63;74.16;93396.50;2074902;69;20170;-76
2022/12/17 17:32:09;;;;;;;108.05;48.97;;;;;;;-1.58;73.83;93395.72;2075342;69;20140;-75
2022/12/17 17:34:34;;;;;;;108.35;51.25;;;;;;;-1.64;72.66;93403.31;2075315;69;20175;-76
2022/12/17 17:37:00;;;;;;;99.18;48.13;;;;;;;-1.65;73.94;93405.31;2073785;69;20150;-77
2022/12/17 17:39:26;;;;;;;95.70;44.15;;;;;;;-1.51;74.15;93400.69;2074756;69;20147;-76
2022/12/17 17:41:51;;;;;;;90.45;41.55;;;;;;;-1.59;73.92;93389.44;2074918;69;20124;-76
2022/12/17 17:44:17;;;;;;;107.45;49.78;;;;;;;-1.74;73.44;93397.38;2075042;69;20154;-74
2022/12/17 17:46:44;;;;;;;100.03;46.92;;;;;;;-1.75;73.37;93403.38;2075015;69;20154;-76
2022/12/17 17:49:11;;;;;;;71.97;36.53;;;;;;;-1.93;73.25;93405.50;2075027;69;20168;-77
2022/12/17 17:51:40;;;;;;;69.57;35.22;;;;;;;-1.77;72.66;93405.91;2073485;69;20172;-76
2022/12/17 17:54:06;;;;;;;74.25;37.35;;;;;;;-1.81;72.83;93406.94;2071465;69;20167;-78
2022/12/17 17:56:34;;;;;;;81.40;38.63;;;;;;;-1.95;73.47;93416.31;2073395;69;20183;-76
2022/12/17 17:59:03;;;;;;;72.28;35.20;;;;;;;-1.84;73.12;93426.53;2073703;69;20147;-73
2022/12/17 18:01:36;;;;;;;73.50;37.28;;;;;;;-1.83;73.04;93428.78;2072594;69;20152;-74
2022/12/17 18:04:04;;;;;;;84.30;41.45;;;;;;;-1.75;73.53;93428.97;2074794;69;20155;-77
2022/12/17 18:06:31;;;;;;;92.40;43.63;;;;;;;-1.76;73.62;93430.25;2067137;69;20172;-75
2022/12/17 18:08:58;;;;;;;99.18;46.78;;;;;;;-1.70;74.08;93422.66;2071354;69;20217;-77
2022/12/17 18:11:27;;;;;;;99.63;48.30;;;;;;;-1.62;74.47;93434.66;2072506;69;20257;-74
2022/12/17 18:13:56;;;;;;;105.07;48.42;;;;;;;-1.68;73.22;93439.47;2065625;69;20156;-78
2022/12/17 18:16:34;;;;;;;167.63;62.20;;;;;;;-1.66;73.65;93441.72;2071801;69;20152;-76
2022/12/17 18:19:06;;;;;;;138.90;57.25;;;;;;;-1.70;74.03;93444.00;2071458;69;20245;-74
2022/12/17 18:21:32;;;;;;;107.60;48.25;;;;;;;-1.69;73.92;93437.97;2071382;69;20141;-75
2022/12/17 18:24:01;;;;;;;93.30;43.38;;;;;;;-1.63;74.35;93440.69;2071452;69;20552;-75
2022/12/17 18:26:29;;;;;;;97.30;43.97;;;;;;;-1.67;74.48;93443.72;2071496;69;20542;-79
2022/12/17 18:29:01;;;;;;;85.90;41.95;;;;;;;-1.71;73.28;93445.25;2071501;69;20152;-75
2022/12/17 18:31:30;;;;;;;76.65;35.20;;;;;;;-1.93;75.50;93446.91;2068457;69;20187;-80
2022/12/17 18:33:58;;;;;;;102.82;48.28;;;;;;;-1.74;75.42;93454.56;2071652;69;20221;-74
2022/12/17 18:36:30;;;;;;;110.35;51.28;;;;;;;-1.72;74.93;93460.34;2067977;69;20180;-76
2022/12/17 18:38:57;;;;;;;97.88;43.45;;;;;;;-1.81;74.27;93456.63;2071426;69;20184;-74
2022/12/17 18:44:08;;;;;;;114.47;51.45;;;;;;;-1.87;74.35;93458.69;2073101;69;20226;-77
2022/12/17 18:46:34;;;;;;;115.70;52.42;;;;;;;-1.76;74.59;93466.13;2074544;69;20588;-75
2022/12/17 18:49:08;;;;;;;111.88;52.90;;;;;;;-1.73;75.48;93470.63;2074792;69;20152;-75
2022/12/17 18:51:34;;;;;;;123.00;54.25;;;;;;;-1.77;74.94;93474.94;2073566;69;20555;-77
2022/12/17 18:54:02;;;;;;;124.78;55.50;;;;;;;-2.00;76.11;93480.59;2073022;69;20583;-76
2022/12/17 18:56:28;;;;;;;104.63;50.13;;;;;;;-2.03;76.07;93483.59;2074577;69;20147;-76
2022/12/17 18:58:55;;;;;;;108.60;50.28;;;;;;;-1.85;75.29;93488.53;2074836;69;20179;-74
2022/12/17 19:01:29;;;;;;;95.93;47.53;;;;;;;-1.88;74.69;93489.53;2074771;69;20224;-75
2022/12/17 19:03:56;;;;;;;100.95;48.15;;;;;;;-1.80;74.76;93487.72;2071388;69;20144;-76
2022/12/17 19:06:23;;;;;;;107.82;49.97;;;;;;;-1.81;74.73;93489.75;2074920;69;20160;-75
2022/12/17 19:08:50;;;;;;;120.00;50.90;;;;;;;-1.84;74.88;93499.03;2071232;69;20242;-76
2022/12/17 19:11:20;;;;;;;107.03;43.97;;;;;;;-1.72;74.87;93496.97;2071288;69;20140;-75
2022/12/17 19:13:47;;;;;;;94.68;40.58;;;;;;;-1.80;75.66;93496.75;2074659;69;20159;-76
2022/12/17 19:16:15;;;;;;;57.38;27.75;;;;;;;-1.84;75.22;93496.28;2074696;69;20198;-76
2022/12/17 19:18:41;;;;;;;42.17;20.52;;;;;;;-1.77;75.83;93502.53;2074995;69;20481;-77
2022/12/17 19:21:11;;;;;;;35.25;17.58;;;;;;;-1.72;74.38;93496.97;2071373;69;20783;-76
2022/12/17 19:23:38;;;;;;;40.53;19.38;;;;;;;-1.69;73.26;93498.72;2070483;69;20538;-77
2022/12/17 19:26:13;;;;;;;36.65;18.00;;;;;;;-1.72;73.47;93510.03;2071059;69;20582;-77
2022/12/17 19:28:44;;;;;;;35.00;16.35;;;;;;;-1.76;72.76;93515.81;2067903;69;20187;-77
2022/12/17 19:31:12;;;;;;;40.80;20.73;;;;;;;-1.74;72.78;93520.81;2068008;69;20152;-77
2022/12/17 19:33:38;;;;;;;37.58;18.13;;;;;;;-1.58;72.69;93517.22;2071571;69;20227;-76
2022/12/17 19:36:11;;;;;;;49.80;22.75;;;;;;;-1.71;72.85;93522.56;2071622;69;20620;-76
2022/12/17 19:38:37;;;;;;;49.20;22.85;;;;;;;-1.92;73.40;93522.19;2071483;69;20163;-76
2022/12/17 19:41:08;;;;;;;37.75;18.15;;;;;;;-1.98;73.04;93521.47;2071128;69;20235;-74
2022/12/17 19:43:35;;;;;;;36.63;17.98;;;;;;;-1.77;72.53;93519.09;2071392;69;20178;-78
2022/12/17 19:46:06;;;;;;;44.10;19.55;;;;;;;-1.99;72.64;93523.47;2071221;69;20159;-77
2022/12/17 19:48:33;;;;;;;28.05;15.35;;;;;;;-1.88;71.78;93534.47;2071256;69;20149;-74
2022/12/17 19:51:00;;;;;;;35.58;17.98;;;;;;;-1.95;72.76;93523.22;2071493;69;20144;-76
2022/12/17 19:53:27;;;;;;;36.58;19.23;;;;;;;-1.92;72.30;93531.22;2071428;69;20167;-76
2022/12/17 19:55:54;;;;;;;31.30;15.48;;;;;;;-1.92;72.54;93545.03;2071635;69;20339;-76
2022/12/17 19:58:21;;;;;;;31.10;14.95;;;;;;;-1.75;71.96;93533.13;2071789;69;20159;-77
2022/12/17 20:00:47;;;;;;;32.38;15.90;;;;;;;-1.84;72.09;93539.69;2071783;69;20151;-76
2022/12/17 20:03:13;;;;;;;36.10;17.60;;;;;;;-1.89;71.91;93541.22;2071898;69;20225;-75
2022/12/17 20:05:42;;;;;;;31.92;15.25;;;;;;;-1.78;72.43;93545.97;2065798;69;20654;-77
2022/12/17 20:08:09;;;;;;;29.50;14.55;;;;;;;-1.80;72.93;93540.19;2071882;69;20148;-76
2022/12/17 20:10:35;;;;;;;26.88;13.75;;;;;;;-1.87;72.65;93551.78;2071610;69;20140;-76
2022/12/17 20:13:01;;;;;;;27.45;13.48;;;;;;;-1.88;72.57;93548.28;2071751;69;20614;-76
2022/12/17 20:15:27;;;;;;;24.83;11.80;;;;;;;-2.13;71.74;93546.63;2071810;69;20128;-75
2022/12/17 20:17:53;;;;;;;22.83;11.68;;;;;;;-2.21;71.37;93542.88;2071682;69;20247;-76
2022/12/17 20:20:18;;;;;;;25.73;12.13;;;;;;;-2.03;70.66;93549.84;2071874;69;20266;-75
2022/12/17 20:22:44;;;;;;;24.42;11.30;;;;;;;-2.09;71.36;93553.38;2071628;69;20649;-75
2022/12/17 20:25:10;;;;;;;29.92;14.25;;;;;;;-2.14;72.52;93567.19;2071629;69;20155;-76
2022/12/17 20:27:37;;;;;;;28.35;13.93;;;;;;;-2.06;71.64;93554.38;2071806;69;20218;-75
2022/12/17 20:30:04;;;;;;;27.73;13.10;;;;;;;-2.10;70.72;93564.94;2071552;69;20147;-75
2022/12/17 20:32:30;;;;;;;28.77;13.38;;;;;;;-2.07;70.03;93558.38;2071676;69;20152;-74
2022/12/17 20:34:55;;;;;;;29.42;13.85;;;;;;;-2.21;71.46;93570.47;2071729;69;20563;-75
2022/12/17 20:37:21;;;;;;;28.42;13.48;;;;;;;-2.24;72.04;93561.22;2071640;69;20144;-74
2022/12/17 20:39:47;;;;;;;22.70;11.30;;;;;;;-2.31;71.94;93573.50;2071667;69;20562;-77
2022/12/17 20:42:12;;;;;;;24.20;10.98;;;;;;;-2.42;71.45;93557.00;2068146;69;20671;-76
2022/12/17 20:44:38;;;;;;;25.45;12.05;;;;;;;-2.34;71.48;93560.75;2071851;69;20574;-76
2022/12/17 20:47:04;;;;;;;20.60;10.60;;;;;;;-2.50;71.43;93572.56;2068507;69;20262;-77
2022/12/17 20:49:30;;;;;;;22.67;10.45;;;;;;;-2.40;70.44;93562.00;2071742;69;20151;-77
2022/12/17 20:51:55;;;;;;;18.33;9.05;;;;;;;-2.60;70.31;93561.06;2071757;69;20235;-77
2022/12/17 20:54:21;;;;;;;19.38;9.80;;;;;;;-2.36;70.84;93573.53;2071350;69;20129;-76
2022/12/17 20:56:47;;;;;;;16.45;8.43;;;;;;;-2.47;70.46;93566.03;2071638;69;20613;-76
2022/12/17 20:59:14;;;;;;;19.58;9.63;;;;;;;-2.45;70.34;93571.03;2071789;69;20132;-76
2022/12/17 21:01:40;;;;;;;23.50;10.85;;;;;;;-2.47;71.05;93576.31;2068281;69;20147;-77
2022/12/17 21:04:06;;;;;;;19.70;9.45;;;;;;;-2.45;70.96;93580.06;2071486;69;20152;-76
2022/12/17 21:06:42;;;;;;;21.58;9.15;;;;;;;-2.56;71.69;93588.38;2071704;69;20148;-75
2022/12/17 21:09:09;;;;;;;19.13;8.77;;;;;;;-2.47;71.95;93593.63;2071648;69;20140;-76
2022/12/17 21:11:36;;;;;;;18.70;8.35;;;;;;;-2.59;71.70;93609.41;2071691;69;20148;-76
2022/12/17 21:14:08;;;;;;;21.67;9.43;;;;;;;-2.54;71.04;93602.41;2071564;69;20144;-76
2022/12/17 21:16:35;;;;;;;17.42;8.65;;;;;;;-2.58;71.43;93610.16;2071747;69;20182;-76
2022/12/17 21:19:03;;;;;;;19.77;9.07;;;;;;;-2.85;70.58;93611.69;2071825;69;20140;-78
2022/12/17 21:21:32;;;;;;;17.52;8.68;;;;;;;-2.65;70.78;93603.19;2068214;69;20160;-76
2022/12/17 21:23:59;;;;;;;15.77;8.35;;;;;;;-2.79;70.53;93606.94;2071579;69;20176;-78
2022/12/17 21:26:29;;;;;;;16.88;8.05;;;;;;;-2.77;69.60;93618.22;2071701;69;20621;-76
2022/12/17 21:28:57;;;;;;;18.40;8.07;;;;;;;-2.77;70.49;93614.72;2071524;69;20160;-76
2022/12/17 21:31:26;;;;;;;14.55;7.55;;;;;;;-2.78;70.76;93619.47;2071526;69;20280;-76
2022/12/17 21:33:54;;;;;;;33.85;13.77;;;;;;;-2.92;71.60;93618.47;2071612;69;20136;-76
2022/12/17 21:36:20;;;;;;;25.98;10.77;;;;;;;-2.87;71.20;93617.72;2071701;69;20143;-75
2022/12/17 21:38:47;;;;;;;21.02;8.65;;;;;;;-2.91;71.72;93619.22;2071629;69;20135;-76
2022/12/17 21:41:25;;;;;;;16.73;8.55;;;;;;;-2.92;71.07;93623.25;2071643;69;20156;-76
2022/12/17 21:43:54;;;;;;;16.52;8.35;;;;;;;-3.00;71.85;93622.22;2071027;69;20231;-76
2022/12/17 21:46:19;;;;;;;16.48;8.68;;;;;;;-3.03;70.84;93628.72;2071640;69;20136;-76
2022/12/17 21:48:45;;;;;;;17.75;8.55;;;;;;;-3.07;71.21;93634.47;2071590;69;20136;-78
2022/12/17 21:51:12;;;;;;;16.30;7.88;;;;;;;-3.05;72.51;93645.78;2071539;69;20235;-76
2022/12/17 21:53:41;;;;;;;17.50;7.78;;;;;;;-3.09;71.32;93642.50;2071472;69;20464;-76
2022/12/17 21:56:13;;;;;;;14.40;6.63;;;;;;;-3.12;70.52;93637.97;2071331;69;20314;-76
2022/12/17 21:58:40;;;;;;;13.98;7.03;;;;;;;-3.13;71.03;93640.00;2071447;69;20593;-76
2022/12/17 22:01:12;;;;;;;14.88;7.20;;;;;;;-2.99;71.12;93637.50;2071454;69;20145;-76
2022/12/17 22:03:38;;;;;;;;;;;;;;;-3.25;72.24;93640.47;2071769;69;20159;-76
2022/12/17 22:06:09;;;;;;;14.15;6.70;;;;;;;-3.27;71.48;93642.97;2071690;69;20064;-76
2022/12/17 22:08:35;;;;;;;15.32;7.43;;;;;;;-3.61;72.09;93640.91;2071327;69;20148;-75
2022/12/17 22:11:01;;;;;;;13.32;6.30;;;;;;;-3.52;71.92;93642.69;2068012;69;20143;-76
2022/12/17 22:16:13;;;;;;;12.23;6.05;;;;;;;-3.44;71.27;93629.91;2068476;69;20594;-75
2022/12/17 22:18:39;;;;;;;10.98;5.65;;;;;;;-3.22;70.61;93631.97;2071328;69;20591;-75
2022/12/17 22:21:04;;;;;;;13.10;5.85;;;;;;;-3.28;71.08;93636.72;2071394;69;20231;-76
2022/12/17 22:23:30;;;;;;;15.05;6.75;;;;;;;-3.33;71.43;93646.47;2071534;69;20156;-75
2022/12/17 22:25:56;;;;;;;14.27;6.38;;;;;;;-3.47;70.51;93646.72;2071390;69;20152;-76
2022/12/17 22:28:21;;;;;;;14.13;6.07;;;;;;;-3.36;70.24;93658.47;2071519;69;20456;-76
2022/12/17 22:33:33;;;;;;;13.98;6.25;;;;;;;-3.37;70.08;93645.22;2071433;69;20215;-76
2022/12/17 22:36:00;;;;;;;14.07;6.85;;;;;;;-3.48;70.95;93645.19;2071382;69;20176;-80
2022/12/17 22:38:28;;;;;;;11.10;5.70;;;;;;;-3.45;70.64;93646.94;2071368;69;20140;-79
2022/12/17 22:40:53;;;;;;;12.52;5.55;;;;;;;-3.67;72.43;93644.88;2071315;69;20663;-77
2022/12/17 22:43:28;;;;;;;11.63;5.38;;;;;;;-3.40;71.66;93646.22;2067859;69;20137;-77
2022/12/17 22:46:03;;;;;;;14.02;5.72;;;;;;;-3.58;71.63;93642.66;2071574;69;20152;-75
2022/12/17 22:48:30;;;;;;;12.68;5.65;;;;;;;-3.44;70.67;93642.94;2071542;69;20199;-74
2022/12/17 22:50:56;;;;;;;11.60;5.65;;;;;;;-3.51;69.75;93633.19;2071412;69;20581;-78
2022/12/17 22:53:23;;;;;;;13.00;5.65;;;;;;;-3.65;70.04;93643.16;2071455;69;20181;-76
2022/12/17 22:55:49;;;;;;;11.20;5.15;;;;;;;-3.68;70.16;93637.88;2071320;69;20556;-76
2022/12/17 22:58:16;;;;;;;12.93;5.90;;;;;;;-3.60;71.02;93636.91;2071481;69;20598;-75
2022/12/17 23:00:42;;;;;;;9.73;4.82;;;;;;;-3.65;71.30;93615.63;2070431;69;20514;-76
2022/12/17 23:03:07;;;;;;;9.93;4.90;;;;;;;-3.56;70.86;93625.66;2071117;69;20156;-76
2022/12/17 23:05:33;;;;;;;10.45;4.63;;;;;;;-3.62;71.27;93631.16;2068084;69;20163;-76
2022/12/17 23:08:00;;;;;;;15.65;6.00;;;;;;;-3.46;70.27;93640.69;2071338;69;20179;-75
2022/12/17 23:10:27;;;;;;;13.48;5.10;;;;;;;-3.45;71.18;93639.44;2067548;69;20158;-75
2022/12/17 23:12:53;;;;;;;10.00;4.60;;;;;;;-3.44;70.19;93640.19;2071355;69;20133;-74
2022/12/17 23:15:23;;;;;;;9.45;4.57;;;;;;;-3.59;69.94;93637.66;2071573;69;20151;-76
2022/12/17 23:17:51;;;;;;;12.15;6.40;;;;;;;-3.48;69.48;93642.44;2068121;69;20152;-75
2022/12/17 23:20:17;;;;;;;9.55;4.88;;;;;;;-3.53;69.03;93641.16;2071380;69;20271;-77
2022/12/17 23:22:42;;;;;;;9.57;5.00;;;;;;;-3.87;69.69;93645.81;2071570;69;20586;-74
2022/12/17 23:25:09;;;;;;;18.85;8.75;;;;;;;-3.89;70.82;93645.56;2071330;69;20149;-74
2022/12/17 23:27:36;;;;;;;13.88;5.65;;;;;;;-3.95;70.12;93647.53;2071572;69;20166;-76
2022/12/17 23:30:05;;;;;;;11.93;5.80;;;;;;;-4.14;70.68;93644.44;2071992;69;20457;-74
2022/12/17 23:32:33;;;;;;;13.82;5.93;;;;;;;-4.11;70.33;93640.72;2068973;69;20188;-74
2022/12/17 23:34:59;;;;;;;12.90;5.05;;;;;;;-4.02;70.60;93643.25;2071972;69;20262;-74
2022/12/17 23:37:25;;;;;;;7.25;3.63;;;;;;;-3.91;70.97;93637.06;2071651;69;20164;-74
2022/12/17 23:39:51;;;;;;;8.25;3.58;;;;;;;-3.82;70.04;93628.56;2071790;69;20230;-75
2022/12/17 23:42:16;;;;;;;7.68;3.20;;;;;;;-3.93;69.98;93626.53;2071558;69;20151;-73
2022/12/17 23:44:43;;;;;;;6.35;3.10;;;;;;;-4.09;70.69;93633.47;2071576;69;20553;-76
2022/12/17 23:47:09;;;;;;;6.28;3.30;;;;;;;-3.98;70.60;93632.03;2071707;69;20152;-76
2022/12/17 23:49:35;;;;;;;7.22;3.30;;;;;;;-4.00;70.91;93638.00;2071105;69;20225;-80
2022/12/17 23:52:00;;;;;;;8.98;4.45;;;;;;;-4.36;71.17;93632.09;2070856;69;20194;-78
2022/12/17 23:54:26;;;;;;;9.00;4.47;;;;;;;-4.42;71.46;93636.81;2071370;69;20183;-78
2022/12/17 23:56:52;;;;;;;9.80;4.28;;;;;;;-4.40;70.65;93642.59;2071319;69;20689;-77
2022/12/17 23:59:18;;;;;;;7.53;3.72;;;;;;;-4.40;70.81;93634.34;2071319;69;20172;-76
